Time;durP1;ratioP1;P1;durP2;ratioP2;P2;SDS_P1;SDS_P2;PMS_P1;PMS_P2;Temp;Humidity;BMP_temperature;BMP_pressure;BME280_temperature;BME280_humidity;BME280_pressure;Samples;Min_cycle;Max_cycle;Signal;HPM_P1;HPM_P2
2022/04/08 00:00:03;;;;;;;10.38;2.47;;;;;;;;;;4915925;29;20412;-65
2022/04/08 00:02:31;;;;;;;13.77;2.80;;;;;;;;;;4915284;29;20074;-65
2022/04/08 00:04:57;;;;;;;14.75;2.53;;;;;;;;;;4915603;29;20353;-65
2022/04/08 00:07:23;;;;;;;9.63;1.95;;;;;;;;;;4916404;29;20047;-65
2022/04/08 00:09:49;;;;;;;18.40;2.92;;;;;;;;;;4916982;29;20020;-65
2022/04/08 00:12:15;;;;;;;14.77;2.80;;;;;;;;;;4916472;29;20400;-65
2022/04/08 00:14:41;;;;;;;18.40;2.58;;;;;;;;;;4915660;29;20405;-65
2022/04/08 00:17:07;;;;;;;28.23;3.70;;;;;;;;;;4914886;29;20028;-65
2022/04/08 00:19:33;;;;;;;13.55;2.40;;;;;;;;;;4915951;29;20462;-65
2022/04/08 00:22:00;;;;;;;16.20;2.95;;;;;;;;;;4913740;29;20480;-65
2022/04/08 00:24:26;;;;;;;11.82;2.53;;;;;;;;;;4914784;29;20036;-65
2022/04/08 00:26:52;;;;;;;8.40;2.10;;;;;;;;;;4915356;29;20024;-65
2022/04/08 00:29:18;;;;;;;8.63;2.13;;;;;;;;;;4929200;29;20080;-65
2022/04/08 00:31:45;;;;;;;16.60;2.92;;;;;;;;;;4914212;29;20056;-65
2022/04/08 00:34:11;;;;;;;17.02;2.90;;;;;;;;;;4915472;29;20414;-65
2022/04/08 00:36:37;;;;;;;14.32;2.92;;;;;;;;;;4915815;29;20031;-65
2022/04/08 00:39:03;;;;;;;11.43;2.40;;;;;;;;;;4915419;29;20535;-65
2022/04/08 00:41:29;;;;;;;16.23;2.47;;;;;;;;;;4913174;29;20028;-65
2022/04/08 00:43:55;;;;;;;17.48;2.42;;;;;;;;;;4913528;29;20468;-65
2022/04/08 00:46:21;;;;;;;14.23;2.55;;;;;;;;;;4915286;29;20043;-65
2022/04/08 00:48:47;;;;;;;14.18;2.80;;;;;;;;;;4914717;29;20068;-65
2022/04/08 00:51:14;;;;;;;11.70;1.95;;;;;;;;;;4914790;29;20551;-65
2022/04/08 00:53:40;;;;;;;11.32;1.95;;;;;;;;;;4915566;29;20024;-65
2022/04/08 00:56:06;;;;;;;14.65;2.70;;;;;;;;;;4915284;29;20498;-65
2022/04/08 00:58:35;;;;;;;10.15;2.15;;;;;;;;;;4913977;29;20115;-65
2022/04/08 01:01:01;;;;;;;10.32;2.10;;;;;;;;;;4914386;29;20047;-65
2022/04/08 01:03:27;;;;;;;11.63;3.13;;;;;;;;;;4914294;29;20044;-65
2022/04/08 01:05:53;;;;;;;18.25;2.28;;;;;;;;;;4915311;29;20833;-65
2022/04/08 01:08:20;;;;;;;18.83;3.33;;;;;;;;;;4915160;29;20039;-65
2022/04/08 01:10:46;;;;;;;11.63;2.60;;;;;;;;;;4916490;29;20039;-65
2022/04/08 01:13:12;;;;;;;17.13;3.10;;;;;;;;;;4914081;29;20481;-65
2022/04/08 01:15:38;;;;;;;15.65;2.42;;;;;;;;;;4914945;29;20399;-65
2022/04/08 01:18:05;;;;;;;13.95;2.78;;;;;;;;;;4912387;29;20501;-65
2022/04/08 01:20:32;;;;;;;9.88;2.65;;;;;;;;;;4914707;29;20111;-65
2022/04/08 01:22:58;;;;;;;11.73;2.47;;;;;;;;;;4914429;29;20136;-65
2022/04/08 01:25:24;;;;;;;14.50;2.53;;;;;;;;;;4914623;29;20039;-65
2022/04/08 01:27:50;;;;;;;13.57;2.53;;;;;;;;;;4914324;29;20032;-65
2022/04/08 01:30:17;;;;;;;13.85;3.28;;;;;;;;;;4914508;29;20032;-65
2022/04/08 01:32:43;;;;;;;10.82;2.42;;;;;;;;;;4914833;29;20200;-65
2022/04/08 01:35:09;;;;;;;13.88;2.97;;;;;;;;;;4913857;29;20099;-65
2022/04/08 01:37:36;;;;;;;14.38;2.47;;;;;;;;;;4914611;29;20446;-65
2022/04/08 01:40:02;;;;;;;14.02;2.42;;;;;;;;;;4914206;29;20111;-65
2022/04/08 01:42:28;;;;;;;8.00;2.20;;;;;;;;;;4914740;29;20140;-65
2022/04/08 01:44:55;;;;;;;13.90;2.28;;;;;;;;;;4914015;29;20035;-65
2022/04/08 01:47:22;;;;;;;16.98;2.83;;;;;;;;;;4914448;29;20428;-65
2022/04/08 01:49:48;;;;;;;9.18;2.20;;;;;;;;;;4914553;29;20551;-65
2022/04/08 01:52:14;;;;;;;10.30;2.22;;;;;;;;;;4912313;29;20075;-65
2022/04/08 01:54:41;;;;;;;11.68;2.25;;;;;;;;;;4915272;29;20028;-65
2022/04/08 01:57:07;;;;;;;11.90;2.40;;;;;;;;;;4913692;29;20052;-65
2022/04/08 01:59:33;;;;;;;15.38;3.70;;;;;;;;;;4914132;29;20039;-65
2022/04/08 02:02:02;;;;;;;11.88;2.85;;;;;;;;;;4914061;29;20459;-65
2022/04/08 02:04:29;;;;;;;12.85;3.47;;;;;;;;;;4913913;29;20392;-65
2022/04/08 02:06:55;;;;;;;14.45;2.78;;;;;;;;;;4914427;29;20040;-65
2022/04/08 02:09:21;;;;;;;12.55;2.38;;;;;;;;;;4913476;29;20024;-65
2022/04/08 02:11:47;;;;;;;12.77;2.40;;;;;;;;;;4913437;29;20037;-65
2022/04/08 02:14:13;;;;;;;14.50;2.53;;;;;;;;;;4913390;29;20036;-65
2022/04/08 02:16:40;;;;;;;17.35;3.17;;;;;;;;;;4911597;29;20115;-65
2022/04/08 02:19:06;;;;;;;12.82;3.00;;;;;;;;;;4912491;29;20437;-65
2022/04/08 02:21:32;;;;;;;12.50;3.13;;;;;;;;;;4912125;29;20048;-65
2022/04/08 02:23:59;;;;;;;17.77;2.33;;;;;;;;;;4912417;29;20115;-65
2022/04/08 02:26:25;;;;;;;10.00;2.40;;;;;;;;;;4912252;29;20039;-65
2022/04/08 02:28:51;;;;;;;15.88;3.83;;;;;;;;;;4912781;29;20478;-65
2022/04/08 02:31:17;;;;;;;24.48;4.10;;;;;;;;;;4912085;29;20079;-65
2022/04/08 02:33:43;;;;;;;14.65;3.08;;;;;;;;;;4912717;29;20154;-65
2022/04/08 02:36:10;;;;;;;13.77;3.05;;;;;;;;;;4911793;29;20742;-65
2022/04/08 02:38:36;;;;;;;15.05;2.85;;;;;;;;;;4927587;29;20027;-65
2022/04/08 02:41:02;;;;;;;11.95;2.30;;;;;;;;;;4916029;29;20051;-65
2022/04/08 02:43:28;;;;;;;15.65;2.47;;;;;;;;;;4915516;29;20063;-65
2022/04/08 02:45:54;;;;;;;16.85;3.13;;;;;;;;;;4915996;29;20082;-65
2022/04/08 02:48:20;;;;;;;18.92;2.97;;;;;;;;;;4915603;29;20059;-65
2022/04/08 02:50:46;;;;;;;11.60;2.80;;;;;;;;;;4915400;29;20032;-65
2022/04/08 02:53:12;;;;;;;11.20;2.85;;;;;;;;;;4915630;29;20059;-65
2022/04/08 02:55:39;;;;;;;13.77;2.92;;;;;;;;;;4915250;29;20040;-65
2022/04/08 02:58:05;;;;;;;11.45;2.30;;;;;;;;;;4915416;29;20122;-65
2022/04/08 03:00:31;;;;;;;19.05;4.95;;;;;;;;;;4915383;29;20591;-65
2022/04/08 03:02:57;;;;;;;17.77;3.55;;;;;;;;;;4915540;29;20028;-65
2022/04/08 03:05:23;;;;;;;12.50;3.00;;;;;;;;;;4915156;29;20392;-65
2022/04/08 03:07:49;;;;;;;13.13;2.80;;;;;;;;;;4915559;29;20359;-65
2022/04/08 03:10:15;;;;;;;19.00;3.20;;;;;;;;;;4915830;29;20461;-65
2022/04/08 03:12:42;;;;;;;15.80;3.03;;;;;;;;;;4916000;29;20021;-65
2022/04/08 03:15:08;;;;;;;9.27;2.72;;;;;;;;;;4916097;29;20403;-65
2022/04/08 03:17:37;;;;;;;17.90;3.05;;;;;;;;;;4915829;29;20032;-65
2022/04/08 03:20:04;;;;;;;12.80;2.70;;;;;;;;;;4915643;29;20024;-65
2022/04/08 03:22:30;;;;;;;20.30;3.70;;;;;;;;;;4913726;29;20100;-65
2022/04/08 03:24:56;;;;;;;14.35;3.08;;;;;;;;;;4916211;29;20080;-65
2022/04/08 03:27:23;;;;;;;7.20;2.40;;;;;;;;;;4916419;29;20035;-65
2022/04/08 03:29:49;;;;;;;12.65;3.40;;;;;;;;;;4916117;29;20028;-65
2022/04/08 03:32:15;;;;;;;14.48;2.60;;;;;;;;;;4916555;29;20502;-65
2022/04/08 03:34:41;;;;;;;17.67;2.65;;;;;;;;;;4916486;29;20028;-65
2022/04/08 03:37:08;;;;;;;7.45;2.10;;;;;;;;;;4917387;29;20024;-65
2022/04/08 03:39:34;;;;;;;16.23;3.25;;;;;;;;;;4915384;29;20031;-65
2022/04/08 03:42:00;;;;;;;16.55;3.38;;;;;;;;;;4915747;29;20032;-65
2022/04/08 03:44:26;;;;;;;12.02;2.78;;;;;;;;;;4915197;29;20032;-65
2022/04/08 03:46:52;;;;;;;18.20;4.18;;;;;;;;;;4915390;29;20025;-65
2022/04/08 03:49:21;;;;;;;17.55;2.53;;;;;;;;;;4915369;29;20436;-65
2022/04/08 03:51:47;;;;;;;13.32;2.20;;;;;;;;;;4914045;29;20036;-64
2022/04/08 03:54:14;;;;;;;10.57;2.65;;;;;;;;;;4915388;29;20020;-64
2022/04/08 03:56:43;;;;;;;13.43;3.67;;;;;;;;;;4915084;29;20021;-64
2022/04/08 03:59:10;;;;;;;15.07;2.78;;;;;;;;;;4915244;29;20062;-68
2022/04/08 04:01:36;;;;;;;9.43;2.00;;;;;;;;;;4915115;29;20063;-65
2022/04/08 04:04:03;;;;;;;10.27;2.10;;;;;;;;;;4915364;29;20617;-65
2022/04/08 04:06:29;;;;;;;12.63;2.20;;;;;;;;;;4914133;29;20071;-64
2022/04/08 04:08:56;;;;;;;10.80;2.10;;;;;;;;;;4915893;29;20044;-65
2022/04/08 04:11:22;;;;;;;13.55;2.05;;;;;;;;;;4916115;29;20724;-64
2022/04/08 04:13:48;;;;;;;8.80;2.00;;;;;;;;;;4915016;29;20047;-65
2022/04/08 04:16:14;;;;;;;7.32;2.13;;;;;;;;;;4915076;29;20016;-65
2022/04/08 04:18:40;;;;;;;11.68;2.05;;;;;;;;;;4915016;29;20473;-65
2022/04/08 04:21:08;;;;;;;9.40;2.88;;;;;;;;;;4914797;29;20028;-65
2022/04/08 04:23:35;;;;;;;5.03;1.30;;;;;;;;;;4914480;29;20039;-65
2022/04/08 04:26:01;;;;;;;6.60;1.60;;;;;;;;;;4914746;29;20028;-65
2022/04/08 04:28:30;;;;;;;6.75;1.65;;;;;;;;;;4914990;29;20040;-65
2022/04/08 04:30:59;;;;;;;4.55;1.25;;;;;;;;;;4914476;29;20032;-65
2022/04/08 04:33:28;;;;;;;6.72;1.40;;;;;;;;;;4914979;29;20400;-65
2022/04/08 04:35:54;;;;;;;8.32;1.65;;;;;;;;;;4914275;29;20066;-65
2022/04/08 04:38:20;;;;;;;8.32;1.83;;;;;;;;;;4914579;29;20119;-65
2022/04/08 04:40:47;;;;;;;6.60;1.63;;;;;;;;;;4914621;29;20111;-65
2022/04/08 04:43:13;;;;;;;5.68;1.50;;;;;;;;;;4915299;29;20515;-65
2022/04/08 04:45:39;;;;;;;5.78;1.17;;;;;;;;;;4914487;29;20028;-65
2022/04/08 04:48:05;;;;;;;8.57;1.55;;;;;;;;;;4912565;29;20032;-65
2022/04/08 04:50:32;;;;;;;10.85;1.50;;;;;;;;;;4914361;29;20028;-65
2022/04/08 04:52:58;;;;;;;7.25;1.33;;;;;;;;;;4913665;29;20028;-65
2022/04/08 04:55:24;;;;;;;9.70;1.55;;;;;;;;;;4914253;29;20036;-65
2022/04/08 04:57:50;;;;;;;7.18;2.10;;;;;;;;;;4914059;29;20028;-65
2022/04/08 05:00:18;;;;;;;6.50;1.70;;;;;;;;;;4914504;29;20035;-65
2022/04/08 05:02:44;;;;;;;7.68;1.30;;;;;;;;;;4911580;29;20040;-65
2022/04/08 05:05:11;;;;;;;6.68;1.27;;;;;;;;;;4912922;29;20068;-65
2022/04/08 05:07:37;;;;;;;7.38;1.30;;;;;;;;;;4912679;29;20103;-65
2022/04/08 05:10:04;;;;;;;6.10;1.63;;;;;;;;;;4912981;29;20120;-65
2022/04/08 05:12:31;;;;;;;7.60;1.48;;;;;;;;;;4912522;29;20127;-65
2022/04/08 05:14:57;;;;;;;3.83;1.13;;;;;;;;;;4913108;29;20032;-65
2022/04/08 05:17:23;;;;;;;8.50;1.63;;;;;;;;;;4912588;29;20471;-65
2022/04/08 05:19:49;;;;;;;5.38;1.40;;;;;;;;;;4911463;29;20032;-65
2022/04/08 05:22:16;;;;;;;5.75;1.42;;;;;;;;;;4910943;29;20079;-65
2022/04/08 05:24:44;;;;;;;9.60;1.40;;;;;;;;;;4912762;29;20032;-65
2022/04/08 05:27:10;;;;;;;6.03;1.40;;;;;;;;;;4911510;29;20086;-65
2022/04/08 05:29:36;;;;;;;5.47;1.30;;;;;;;;;;4911844;29;20047;-65
2022/04/08 05:32:02;;;;;;;4.65;1.20;;;;;;;;;;4910921;29;20032;-65
2022/04/08 05:34:28;;;;;;;5.97;1.50;;;;;;;;;;4913401;29;20449;-65
2022/04/08 05:36:54;;;;;;;5.72;1.25;;;;;;;;;;4908555;29;20040;-66
2022/04/08 05:39:20;;;;;;;6.30;1.60;;;;;;;;;;4915721;29;20031;-65
2022/04/08 05:41:46;;;;;;;6.80;1.55;;;;;;;;;;4913982;29;20119;-65
2022/04/08 05:44:13;;;;;;;6.22;2.05;;;;;;;;;;4914629;29;20044;-64
2022/04/08 05:46:39;;;;;;;4.90;1.20;;;;;;;;;;4910612;29;20025;-64
2022/04/08 05:49:05;;;;;;;2.67;1.10;;;;;;;;;;4914701;29;20071;-64
2022/04/08 05:51:31;;;;;;;5.90;1.45;;;;;;;;;;4915109;29;20111;-64
2022/04/08 05:53:58;;;;;;;3.33;0.98;;;;;;;;;;4914670;29;20084;-64
2022/04/08 05:56:25;;;;;;;7.20;1.60;;;;;;;;;;4922075;29;20043;-64
2022/04/08 05:58:51;;;;;;;6.35;1.10;;;;;;;;;;4896894;29;20544;-64
2022/04/08 06:01:17;;;;;;;8.45;1.20;;;;;;;;;;4911952;29;20159;-64
2022/04/08 06:03:43;;;;;;;5.93;1.20;;;;;;;;;;4915313;29;20048;-64
2022/04/08 06:06:09;;;;;;;4.75;0.85;;;;;;;;;;4915487;29;20036;-71
2022/04/08 06:08:35;;;;;;;7.15;1.65;;;;;;;;;;4914241;29;21478;-67
2022/04/08 06:11:01;;;;;;;2.72;1.17;;;;;;;;;;4921071;29;20380;-64
2022/04/08 06:13:28;;;;;;;2.70;1.00;;;;;;;;;;4916710;29;20075;-64
2022/04/08 06:15:55;;;;;;;5.05;1.33;;;;;;;;;;4906410;29;20492;-64
2022/04/08 06:18:21;;;;;;;5.63;1.40;;;;;;;;;;4913815;29;20032;-64
2022/04/08 06:20:47;;;;;;;1.08;0.88;;;;;;;;;;4915406;29;20067;-64
2022/04/08 06:23:13;;;;;;;6.40;1.10;;;;;;;;;;4917708;29;20476;-64
2022/04/08 06:25:39;;;;;;;4.90;0.95;;;;;;;;;;4918553;29;20032;-64
2022/04/08 06:28:06;;;;;;;5.22;1.23;;;;;;;;;;4916259;29;20101;-65
2022/04/08 06:30:37;;;;;;;2.47;1.17;;;;;;;;;;4918565;29;20087;-65
2022/04/08 06:33:03;;;;;;;6.60;1.58;;;;;;;;;;4918627;29;20083;-65
2022/04/08 06:35:30;;;;;;;5.93;1.75;;;;;;;;;;4918382;29;20027;-65
2022/04/08 06:37:59;;;;;;;6.18;1.60;;;;;;;;;;4918251;29;20040;-65
2022/04/08 06:40:26;;;;;;;6.35;1.45;;;;;;;;;;4918367;29;20035;-65
2022/04/08 06:42:57;;;;;;;4.72;1.33;;;;;;;;;;4927850;29;20032;-65
2022/04/08 06:45:23;;;;;;;5.05;1.20;;;;;;;;;;4937050;29;20067;-65
2022/04/08 06:47:49;;;;;;;10.18;1.55;;;;;;;;;;4919626;29;20036;-65
2022/04/08 06:50:16;;;;;;;5.00;1.15;;;;;;;;;;4930192;29;20032;-65
2022/04/08 06:52:43;;;;;;;3.90;1.20;;;;;;;;;;4935410;29;20035;-65
2022/04/08 06:55:09;;;;;;;5.10;1.52;;;;;;;;;;4918021;29;20028;-65
2022/04/08 06:57:35;;;;;;;2.30;0.85;;;;;;;;;;4918052;29;20028;-65
2022/04/08 07:00:03;;;;;;;5.43;1.70;;;;;;;;;;4917954;29;20035;-65
2022/04/08 07:02:29;;;;;;;1.85;1.00;;;;;;;;;;4917565;29;20044;-65
2022/04/08 07:04:56;;;;;;;2.15;0.93;;;;;;;;;;4917981;29;20585;-65
2022/04/08 07:07:22;;;;;;;2.15;0.90;;;;;;;;;;4917478;29;20126;-65
2022/04/08 07:09:48;;;;;;;1.05;0.60;;;;;;;;;;4917932;29;20047;-65
2022/04/08 07:12:14;;;;;;;1.13;0.88;;;;;;;;;;4917731;29;20115;-65
2022/04/08 07:14:40;;;;;;;2.90;0.90;;;;;;;;;;4917583;29;20028;-65
2022/04/08 07:17:06;;;;;;;2.03;0.80;;;;;;;;;;4917401;29;20027;-65
2022/04/08 07:19:32;;;;;;;1.02;0.63;;;;;;;;;;4933920;29;20106;-65
2022/04/08 07:21:59;;;;;;;1.95;0.60;;;;;;;;;;4932884;29;20526;-65
2022/04/08 07:24:25;;;;;;;2.05;0.68;;;;;;;;;;4916881;29;20063;-65
2022/04/08 07:26:52;;;;;;;3.90;1.00;;;;;;;;;;4918745;29;20036;-65
2022/04/08 07:29:18;;;;;;;1.98;0.65;;;;;;;;;;4928824;29;20039;-65
2022/04/08 07:31:44;;;;;;;3.13;0.82;;;;;;;;;;4916973;29;20032;-65
2022/04/08 07:34:10;;;;;;;2.33;1.10;;;;;;;;;;4917379;29;20031;-65
2022/04/08 07:36:36;;;;;;;1.92;0.60;;;;;;;;;;4916887;29;20036;-65
2022/04/08 07:39:03;;;;;;;3.08;0.93;;;;;;;;;;4917240;29;20087;-66
2022/04/08 07:41:29;;;;;;;3.67;0.80;;;;;;;;;;4917156;29;20464;-66
2022/04/08 07:43:55;;;;;;;1.95;0.80;;;;;;;;;;4917381;29;20404;-65
2022/04/08 07:46:21;;;;;;;3.42;0.75;;;;;;;;;;4916881;29;20036;-65
2022/04/08 07:48:48;;;;;;;3.40;0.60;;;;;;;;;;4917107;29;20040;-65
2022/04/08 07:51:14;;;;;;;1.98;0.82;;;;;;;;;;4916990;29;20043;-65
2022/04/08 07:53:40;;;;;;;5.18;0.65;;;;;;;;;;4916861;29;20028;-66
2022/04/08 07:56:06;;;;;;;6.78;0.70;;;;;;;;;;4917149;29;20032;-65
2022/04/08 07:58:32;;;;;;;3.90;0.68;;;;;;;;;;4916642;29;20087;-65
2022/04/08 08:00:59;;;;;;;2.00;0.45;;;;;;;;;;4916658;29;20032;-65
2022/04/08 08:03:25;;;;;;;3.95;0.50;;;;;;;;;;4916669;29;20036;-65
2022/04/08 08:05:53;;;;;;;0.52;0.40;;;;;;;;;;4916881;29;20034;-65
2022/04/08 08:08:20;;;;;;;2.38;0.60;;;;;;;;;;4916704;29;20028;-65
2022/04/08 08:10:46;;;;;;;2.83;0.55;;;;;;;;;;4916610;29;20036;-65
2022/04/08 08:13:12;;;;;;;2.85;0.50;;;;;;;;;;4916716;29;20556;-65
2022/04/08 08:15:41;;;;;;;3.70;0.63;;;;;;;;;;4916195;29;20020;-65
2022/04/08 08:18:08;;;;;;;1.15;0.50;;;;;;;;;;4916599;29;20044;-65
2022/04/08 08:20:34;;;;;;;3.03;0.65;;;;;;;;;;4916386;29;20035;-65
2022/04/08 08:23:01;;;;;;;2.15;0.47;;;;;;;;;;4916438;29;20108;-65
2022/04/08 08:25:27;;;;;;;2.30;0.60;;;;;;;;;;4916234;29;20112;-65
2022/04/08 08:27:54;;;;;;;1.55;0.40;;;;;;;;;;4916484;29;20128;-65
2022/04/08 08:30:21;;;;;;;2.40;0.80;;;;;;;;;;4915924;29;20036;-65
2022/04/08 08:32:48;;;;;;;1.27;0.63;;;;;;;;;;4916118;29;20042;-65
2022/04/08 08:35:14;;;;;;;2.67;0.45;;;;;;;;;;4916300;29;20119;-65
2022/04/08 08:37:41;;;;;;;0.93;0.50;;;;;;;;;;4915774;29;20024;-65
2022/04/08 08:40:08;;;;;;;1.50;0.40;;;;;;;;;;4916297;29;20119;-65
2022/04/08 08:42:36;;;;;;;2.20;0.47;;;;;;;;;;4916070;29;20484;-65
2022/04/08 08:45:03;;;;;;;3.00;0.60;;;;;;;;;;4915875;29;20056;-65
2022/04/08 08:47:30;;;;;;;0.55;0.50;;;;;;;;;;4916074;29;20020;-65
2022/04/08 08:49:57;;;;;;;1.23;0.50;;;;;;;;;;4916058;29;20036;-66
2022/04/08 08:52:24;;;;;;;5.57;0.93;;;;;;;;;;4915961;29;20266;-66
2022/04/08 08:54:50;;;;;;;1.90;0.50;;;;;;;;;;4915837;29;20028;-65
2022/04/08 08:57:17;;;;;;;3.30;0.60;;;;;;;;;;4915845;29;20066;-65
2022/04/08 08:59:44;;;;;;;4.10;0.60;;;;;;;;;;4915485;29;20114;-65
2022/04/08 09:02:12;;;;;;;3.78;0.60;;;;;;;;;;4915973;29;20032;-65
2022/04/08 09:04:42;;;;;;;2.50;0.70;;;;;;;;;;4915541;29;20032;-65
2022/04/08 09:07:09;;;;;;;1.60;0.70;;;;;;;;;;4915767;29;20036;-65
2022/04/08 09:09:36;;;;;;;1.65;0.73;;;;;;;;;;4915608;29;20418;-65
2022/04/08 09:12:12;;;;;;;3.53;0.63;;;;;;;;;;4915618;29;20039;-65
2022/04/08 09:14:38;;;;;;;1.23;0.50;;;;;;;;;;4915237;29;20032;-65
2022/04/08 09:17:05;;;;;;;4.32;0.80;;;;;;;;;;4915608;29;20012;-65
2022/04/08 09:19:35;;;;;;;4.05;0.75;;;;;;;;;;4898880;29;20028;-65
2022/04/08 09:22:01;;;;;;;3.85;0.75;;;;;;;;;;4915456;29;20056;-65
2022/04/08 09:24:28;;;;;;;2.45;0.68;;;;;;;;;;4915382;29;20036;-65
2022/04/08 09:26:54;;;;;;;2.15;0.63;;;;;;;;;;4915273;29;20040;-65
2022/04/08 09:29:21;;;;;;;5.18;0.70;;;;;;;;;;4915151;29;20028;-65
2022/04/08 09:31:49;;;;;;;4.25;0.80;;;;;;;;;;4915103;29;20412;-65
2022/04/08 09:34:18;;;;;;;4.50;1.08;;;;;;;;;;4915393;29;20472;-65
2022/04/08 09:36:45;;;;;;;0.57;0.47;;;;;;;;;;4915036;29;20542;-65
2022/04/08 09:39:12;;;;;;;1.70;0.52;;;;;;;;;;4915356;29;20043;-66
2022/04/08 09:41:52;;;;;;;4.38;1.10;;;;;;;;;;4914787;29;20056;-66
2022/04/08 09:44:24;;;;;;;0.90;0.80;;;;;;;;;;4915301;29;20044;-65
2022/04/08 09:46:50;;;;;;;5.20;0.90;;;;;;;;;;4915108;29;20048;-65
2022/04/08 09:49:16;;;;;;;5.07;1.10;;;;;;;;;;4914693;29;20028;-65
2022/04/08 09:51:42;;;;;;;2.80;1.65;;;;;;;;;;4914955;29;20036;-65
2022/04/08 09:54:12;;;;;;;6.80;0.90;;;;;;;;;;4902673;29;20373;-65
2022/04/08 09:56:39;;;;;;;6.78;1.27;;;;;;;;;;4895826;29;20029;-65
2022/04/08 09:59:12;;;;;;;1.65;0.60;;;;;;;;;;4896101;29;20035;-65
2022/04/08 10:01:39;;;;;;;5.00;1.05;;;;;;;;;;4896110;29;20062;-65
2022/04/08 10:04:06;;;;;;;5.75;1.40;;;;;;;;;;4896272;29;20037;-65
2022/04/08 10:06:32;;;;;;;5.45;1.15;;;;;;;;;;4895824;29;20053;-65
2022/04/08 10:09:00;;;;;;;8.13;1.23;;;;;;;;;;4896081;29;20405;-65
2022/04/08 10:11:35;;;;;;;7.13;1.35;;;;;;;;;;4896089;29;20064;-65
2022/04/08 10:14:13;;;;;;;5.35;1.00;;;;;;;;;;4895918;29;20150;-65
2022/04/08 10:16:40;;;;;;;6.80;1.05;;;;;;;;;;4895838;29;20028;-65
2022/04/08 10:19:07;;;;;;;2.53;0.82;;;;;;;;;;4896096;29;20141;-65
2022/04/08 10:21:41;;;;;;;7.78;1.35;;;;;;;;;;4895611;29;20108;-65
2022/04/08 10:24:09;;;;;;;1.73;0.70;;;;;;;;;;4896264;29;20068;-65
2022/04/08 10:26:35;;;;;;;5.72;1.00;;;;;;;;;;4895540;29;20115;-65
2022/04/08 10:29:10;;;;;;;2.72;0.65;;;;;;;;;;4895971;29;20028;-65
2022/04/08 10:31:36;;;;;;;2.42;0.90;;;;;;;;;;4895904;29;20079;-65
2022/04/08 10:34:02;;;;;;;12.63;1.15;;;;;;;;;;4895710;29;20037;-65
2022/04/08 10:36:32;;;;;;;6.25;1.02;;;;;;;;;;4896077;29;20549;-65
2022/04/08 10:39:16;;;;;;;9.38;1.08;;;;;;;;;;4895667;29;20473;-65
2022/04/08 10:41:53;;;;;;;4.70;0.65;;;;;;;;;;4895777;29;20036;-65
2022/04/08 10:44:36;;;;;;;7.40;1.50;;;;;;;;;;4895883;29;20043;-65
2022/04/08 10:47:02;;;;;;;;;;;;;;;;;;4896367;29;20036;-65
2022/04/08 10:49:28;;;;;;;8.10;0.77;;;;;;;;;;4895970;29;19907;-65
2022/04/08 10:51:55;;;;;;;4.55;0.95;;;;;;;;;;4895504;29;20560;-65
2022/04/08 10:54:21;;;;;;;8.98;1.05;;;;;;;;;;4895380;29;20021;-65
2022/04/08 10:56:59;;;;;;;7.70;1.10;;;;;;;;;;4895671;29;20029;-65
2022/04/08 10:59:28;;;;;;;8.63;1.23;;;;;;;;;;4895673;29;20084;-65
2022/04/08 11:02:03;;;;;;;3.10;0.80;;;;;;;;;;4897053;29;20556;-65
2022/04/08 11:04:30;;;;;;;4.72;1.00;;;;;;;;;;4899236;29;20441;-64
2022/04/08 11:06:56;;;;;;;4.25;0.60;;;;;;;;;;4898331;29;20081;-64
2022/04/08 11:09:23;;;;;;;5.72;1.20;;;;;;;;;;4905195;29;20059;-64
2022/04/08 11:11:53;;;;;;;8.75;0.98;;;;;;;;;;4905988;29;20548;-64
2022/04/08 11:14:19;;;;;;;8.88;1.42;;;;;;;;;;4899242;29;20025;-64
2022/04/08 11:16:47;;;;;;;13.57;1.23;;;;;;;;;;4897630;29;20119;-64
2022/04/08 11:19:13;;;;;;;4.80;0.98;;;;;;;;;;4897985;29;20029;-64
2022/04/08 11:21:40;;;;;;;5.80;0.80;;;;;;;;;;4904025;29;20531;-64
2022/04/08 11:24:11;;;;;;;2.17;0.60;;;;;;;;;;4915877;29;20031;-64
2022/04/08 11:26:50;;;;;;;4.50;1.20;;;;;;;;;;4917287;29;20095;-65
2022/04/08 11:29:17;;;;;;;5.13;1.15;;;;;;;;;;4925453;29;20515;-65
2022/04/08 11:31:45;;;;;;;7.22;1.13;;;;;;;;;;4918636;29;20512;-64
2022/04/08 11:34:12;;;;;;;3.63;0.70;;;;;;;;;;4919976;29;20074;-64
2022/04/08 11:36:39;;;;;;;7.93;0.90;;;;;;;;;;4914576;29;20503;-65
2022/04/08 11:39:05;;;;;;;1.58;0.63;;;;;;;;;;4916289;29;20396;-65
2022/04/08 11:41:31;;;;;;;2.38;0.70;;;;;;;;;;4912396;29;20066;-65
2022/04/08 11:43:57;;;;;;;8.82;0.82;;;;;;;;;;4915577;29;20038;-64
2022/04/08 11:46:24;;;;;;;13.05;1.70;;;;;;;;;;4920472;29;20032;-64
2022/04/08 11:48:50;;;;;;;2.78;0.50;;;;;;;;;;4915607;29;20051;-64
2022/04/08 11:51:20;;;;;;;4.97;0.90;;;;;;;;;;4900681;29;20445;-64
2022/04/08 11:53:47;;;;;;;7.85;0.90;;;;;;;;;;4917055;29;20515;-64
2022/04/08 11:56:25;;;;;;;4.63;1.05;;;;;;;;;;4916754;29;20020;-64
2022/04/08 11:59:11;;;;;;;4.50;0.80;;;;;;;;;;4916956;29;20067;-64
2022/04/08 12:01:38;;;;;;;6.28;1.17;;;;;;;;;;4917010;29;20599;-64
2022/04/08 12:04:05;;;;;;;1.92;0.80;;;;;;;;;;4916727;29;20028;-64
2022/04/08 12:06:35;;;;;;;3.80;0.68;;;;;;;;;;4916614;29;20043;-64
2022/04/08 12:09:01;;;;;;;1.13;0.40;;;;;;;;;;4916560;29;20040;-64
2022/04/08 12:11:28;;;;;;;5.13;1.17;;;;;;;;;;4916032;29;20476;-64
2022/04/08 12:13:56;;;;;;;8.15;1.10;;;;;;;;;;4916567;29;20028;-64
2022/04/08 12:16:22;;;;;;;4.43;0.82;;;;;;;;;;4916675;29;20396;-64
2022/04/08 12:18:51;;;;;;;5.78;0.90;;;;;;;;;;4916610;29;20554;-64
2022/04/08 12:21:22;;;;;;;4.93;0.80;;;;;;;;;;4915749;29;20315;-64
2022/04/08 12:23:49;;;;;;;7.07;0.95;;;;;;;;;;4916523;29;20035;-64
2022/04/08 12:26:15;;;;;;;2.72;0.68;;;;;;;;;;4916338;29;20032;-64
2022/04/08 12:28:41;;;;;;;2.08;0.77;;;;;;;;;;4916311;29;20036;-64
2022/04/08 12:31:15;;;;;;;4.32;0.68;;;;;;;;;;4916051;29;20488;-64
2022/04/08 12:33:41;;;;;;;4.80;1.10;;;;;;;;;;4916340;29;20032;-64
2022/04/08 12:36:09;;;;;;;2.35;0.73;;;;;;;;;;4915719;29;20489;-64
2022/04/08 12:38:36;;;;;;;4.70;0.77;;;;;;;;;;4916339;29;20028;-64
2022/04/08 12:41:02;;;;;;;4.45;1.45;;;;;;;;;;4915728;29;20031;-64
2022/04/08 12:43:28;;;;;;;6.38;1.00;;;;;;;;;;4916243;29;20044;-64
2022/04/08 12:45:54;;;;;;;9.10;1.33;;;;;;;;;;4916120;29;20035;-64
2022/04/08 12:48:20;;;;;;;4.72;0.95;;;;;;;;;;4915771;29;20040;-64
2022/04/08 12:50:47;;;;;;;8.55;1.30;;;;;;;;;;4915667;29;20036;-64
2022/04/08 12:53:13;;;;;;;9.30;1.20;;;;;;;;;;4915582;29;20028;-64
2022/04/08 12:55:39;;;;;;;8.52;0.93;;;;;;;;;;4916213;29;20443;-64
2022/04/08 12:58:05;;;;;;;3.00;1.08;;;;;;;;;;4915587;29;20088;-64
2022/04/08 13:00:31;;;;;;;4.90;1.05;;;;;;;;;;4915992;29;20032;-64
2022/04/08 13:02:57;;;;;;;10.85;1.40;;;;;;;;;;4916026;29;20035;-64
2022/04/08 13:05:23;;;;;;;4.70;0.85;;;;;;;;;;4915349;29;20032;-64
2022/04/08 13:07:52;;;;;;;1.98;0.75;;;;;;;;;;4915293;29;20039;-64
2022/04/08 13:10:19;;;;;;;2.28;0.95;;;;;;;;;;4919061;29;20028;-63
2022/04/08 13:12:45;;;;;;;3.70;0.70;;;;;;;;;;4915589;29;20099;-64
2022/04/08 13:15:12;;;;;;;10.38;1.00;;;;;;;;;;4915352;29;20079;-64
2022/04/08 13:17:40;;;;;;;9.23;1.45;;;;;;;;;;4914692;29;20043;-64
2022/04/08 13:20:07;;;;;;;7.50;1.55;;;;;;;;;;4918994;29;20507;-63
2022/04/08 13:22:33;;;;;;;4.32;1.10;;;;;;;;;;4933736;29;20044;-65
2022/04/08 13:24:59;;;;;;;8.88;1.00;;;;;;;;;;4926643;29;20039;-64
2022/04/08 13:27:25;;;;;;;3.75;1.25;;;;;;;;;;4914513;29;20186;-64
2022/04/08 13:29:52;;;;;;;9.27;1.85;;;;;;;;;;4914905;29;20032;-64
2022/04/08 13:32:19;;;;;;;4.32;0.80;;;;;;;;;;4911744;29;20043;-64
2022/04/08 13:34:45;;;;;;;6.45;0.95;;;;;;;;;;4913413;29;20024;-64
2022/04/08 13:37:12;;;;;;;4.63;0.95;;;;;;;;;;4914010;29;20024;-64
2022/04/08 13:39:38;;;;;;;6.93;1.83;;;;;;;;;;4913764;29;20028;-64
2022/04/08 13:42:05;;;;;;;8.27;0.98;;;;;;;;;;4910592;29;20035;-64
2022/04/08 13:44:31;;;;;;;3.58;0.70;;;;;;;;;;4913647;29;20083;-64
2022/04/08 13:47:04;;;;;;;5.80;1.10;;;;;;;;;;4914033;29;20396;-64
2022/04/08 13:49:31;;;;;;;5.90;0.70;;;;;;;;;;4913195;29;20159;-64
2022/04/08 13:51:57;;;;;;;7.97;0.80;;;;;;;;;;4913877;29;20032;-64
2022/04/08 13:54:23;;;;;;;5.15;0.90;;;;;;;;;;4913361;29;20023;-64
2022/04/08 13:56:49;;;;;;;5.00;0.90;;;;;;;;;;4914273;29;20028;-64
2022/04/08 13:59:15;;;;;;;5.22;0.82;;;;;;;;;;4914752;29;20028;-64
2022/04/08 14:01:41;;;;;;;8.68;1.52;;;;;;;;;;4913677;29;20135;-64
2022/04/08 14:04:10;;;;;;;4.65;1.00;;;;;;;;;;4913667;29;20395;-65
2022/04/08 14:06:36;;;;;;;8.50;0.90;;;;;;;;;;4913634;29;20051;-64
2022/04/08 14:09:04;;;;;;;8.30;1.92;;;;;;;;;;4913898;29;20488;-64
2022/04/08 14:11:30;;;;;;;8.05;1.70;;;;;;;;;;4922769;29;20379;-64
2022/04/08 14:13:56;;;;;;;6.80;1.45;;;;;;;;;;4913956;29;20059;-64
2022/04/08 14:16:23;;;;;;;4.93;1.50;;;;;;;;;;4913481;29;20034;-64
2022/04/08 14:18:49;;;;;;;5.65;1.25;;;;;;;;;;4913686;29;20030;-64
2022/04/08 14:21:15;;;;;;;4.15;1.00;;;;;;;;;;4913454;29;20055;-64
2022/04/08 14:23:44;;;;;;;3.78;1.40;;;;;;;;;;4913949;29;20024;-64
2022/04/08 14:26:11;;;;;;;7.13;1.45;;;;;;;;;;4913589;29;20115;-64
2022/04/08 14:28:37;;;;;;;7.68;2.60;;;;;;;;;;4913477;29;20099;-64
2022/04/08 14:31:03;;;;;;;8.27;1.02;;;;;;;;;;4913483;29;20118;-64
2022/04/08 14:33:30;;;;;;;3.65;1.02;;;;;;;;;;4913625;29;20063;-64
2022/04/08 14:35:59;;;;;;;6.18;1.33;;;;;;;;;;4915834;29;20032;-64
2022/04/08 14:38:25;;;;;;;5.45;1.50;;;;;;;;;;4915867;29;20035;-65